sensor_id;sensor_type;location;lat;lon;timestamp;P1;durP1;ratioP1;P2;durP2;ratioP2
24739;SDS011;45234;48.148;17.128;2023-02-01T00:02:14;3.25;;;2.10;;
24739;SDS011;45234;48.148;17.128;2023-02-01T00:04:40;3.38;;;2.40;;
24739;SDS011;45234;48.148;17.128;2023-02-01T00:07:07;2.67;;;2.25;;
24739;SDS011;45234;48.148;17.128;2023-02-01T00:09:37;2.80;;;1.92;;
24739;SDS011;45234;48.148;17.128;2023-02-01T00:12:04;3.95;;;2.10;;
24739;SDS011;45234;48.148;17.128;2023-02-01T00:14:31;3.40;;;2.28;;
24739;SDS011;45234;48.148;17.128;2023-02-01T00:17:04;4.72;;;2.17;;
24739;SDS011;45234;48.148;17.128;2023-02-01T00:19:32;3.47;;;2.00;;
24739;SDS011;45234;48.148;17.128;2023-02-01T00:22:00;4.30;;;1.88;;
24739;SDS011;45234;48.148;17.128;2023-02-01T00:24:28;3.15;;;2.10;;
24739;SDS011;45234;48.148;17.128;2023-02-01T00:26:55;5.28;;;2.10;;
24739;SDS011;45234;48.148;17.128;2023-02-01T00:29:21;2.83;;;1.92;;
24739;SDS011;45234;48.148;17.128;2023-02-01T00:31:49;2.97;;;1.70;;
24739;SDS011;45234;48.148;17.128;2023-02-01T00:34:17;3.17;;;2.30;;
24739;SDS011;45234;48.148;17.128;2023-02-01T00:36:46;4.32;;;1.75;;
24739;SDS011;45234;48.148;17.128;2023-02-01T00:39:12;2.58;;;1.98;;
24739;SDS011;45234;48.148;17.128;2023-02-01T00:41:40;3.78;;;1.83;;
24739;SDS011;45234;48.148;17.128;2023-02-01T00:44:07;2.55;;;1.70;;
24739;SDS011;45234;48.148;17.128;2023-02-01T00:46:34;3.38;;;1.80;;
24739;SDS011;45234;48.148;17.128;2023-02-01T00:49:01;4.75;;;1.67;;
24739;SDS011;45234;48.148;17.128;2023-02-01T00:51:28;2.10;;;1.58;;
24739;SDS011;45234;48.148;17.128;2023-02-01T00:53:55;1.90;;;1.60;;
24739;SDS011;45234;48.148;17.128;2023-02-01T00:56:23;3.83;;;2.00;;
24739;SDS011;45234;48.148;17.128;2023-02-01T00:58:50;2.22;;;1.38;;
24739;SDS011;45234;48.148;17.128;2023-02-01T01:01:18;3.35;;;1.67;;
24739;SDS011;45234;48.148;17.128;2023-02-01T01:03:47;2.80;;;1.50;;
24739;SDS011;45234;48.148;17.128;2023-02-01T01:06:20;2.33;;;1.50;;
24739;SDS011;45234;48.148;17.128;2023-02-01T01:08:56;3.17;;;1.70;;
24739;SDS011;45234;48.148;17.128;2023-02-01T01:11:25;2.53;;;1.45;;
24739;SDS011;45234;48.148;17.128;2023-02-01T01:13:54;3.05;;;1.65;;
24739;SDS011;45234;48.148;17.128;2023-02-01T01:16:23;2.00;;;1.48;;
24739;SDS011;45234;48.148;17.128;2023-02-01T01:18:51;4.32;;;1.73;;
24739;SDS011;45234;48.148;17.128;2023-02-01T01:21:19;2.53;;;1.42;;
24739;SDS011;45234;48.148;17.128;2023-02-01T01:23:46;3.78;;;1.27;;
24739;SDS011;45234;48.148;17.128;2023-02-01T01:26:14;2.78;;;1.42;;
24739;SDS011;45234;48.148;17.128;2023-02-01T01:28:46;1.58;;;1.17;;
24739;SDS011;45234;48.148;17.128;2023-02-01T01:31:14;2.05;;;1.50;;
24739;SDS011;45234;48.148;17.128;2023-02-01T01:33:42;3.63;;;1.45;;
24739;SDS011;45234;48.148;17.128;2023-02-01T01:36:12;2.03;;;1.02;;
24739;SDS011;45234;48.148;17.128;2023-02-01T01:38:39;1.98;;;1.27;;
24739;SDS011;45234;48.148;17.128;2023-02-01T01:41:08;2.22;;;1.30;;
24739;SDS011;45234;48.148;17.128;2023-02-01T01:46:30;1.80;;;1.30;;
24739;SDS011;45234;48.148;17.128;2023-02-01T01:51:44;2.90;;;1.40;;
24739;SDS011;45234;48.148;17.128;2023-02-01T01:54:18;2.92;;;1.65;;
24739;SDS011;45234;48.148;17.128;2023-02-01T01:56:51;1.80;;;1.30;;
24739;SDS011;45234;48.148;17.128;2023-02-01T01:59:22;2.60;;;1.45;;
24739;SDS011;45234;48.148;17.128;2023-02-01T02:01:50;2.13;;;1.40;;
24739;SDS011;45234;48.148;17.128;2023-02-01T02:04:17;1.80;;;1.30;;
24739;SDS011;45234;48.148;17.128;2023-02-01T02:06:47;3.75;;;1.60;;
24739;SDS011;45234;48.148;17.128;2023-02-01T02:09:32;2.55;;;2.03;;
24739;SDS011;45234;48.148;17.128;2023-02-01T02:11:59;2.67;;;1.80;;
24739;SDS011;45234;48.148;17.128;2023-02-01T02:14:26;2.15;;;1.58;;
24739;SDS011;45234;48.148;17.128;2023-02-01T02:17:38;4.35;;;1.88;;
24739;SDS011;45234;48.148;17.128;2023-02-01T02:25:53;2.72;;;1.80;;
24739;SDS011;45234;48.148;17.128;2023-02-01T02:34:04;2.50;;;1.55;;
24739;SDS011;45234;48.148;17.128;2023-02-01T02:37:11;4.55;;;1.83;;
24739;SDS011;45234;48.148;17.128;2023-02-01T02:46:01;3.65;;;1.60;;
24739;SDS011;45234;48.148;17.128;2023-02-01T02:49:05;1.80;;;1.47;;
24739;SDS011;45234;48.148;17.128;2023-02-01T02:52:04;2.17;;;1.60;;
24739;SDS011;45234;48.148;17.128;2023-02-01T02:54:59;2.22;;;1.50;;
24739;SDS011;45234;48.148;17.128;2023-02-01T03:00:20;2.25;;;1.42;;
24739;SDS011;45234;48.148;17.128;2023-02-01T03:03:09;2.28;;;1.70;;
24739;SDS011;45234;48.148;17.128;2023-02-01T03:05:54;2.22;;;1.13;;
24739;SDS011;45234;48.148;17.128;2023-02-01T03:08:22;2.42;;;1.33;;
24739;SDS011;45234;48.148;17.128;2023-02-01T03:16:11;2.33;;;1.55;;
24739;SDS011;45234;48.148;17.128;2023-02-01T03:21:40;2.38;;;1.60;;
24739;SDS011;45234;48.148;17.128;2023-02-01T03:26:41;1.92;;;1.52;;
24739;SDS011;45234;48.148;17.128;2023-02-01T03:29:22;3.33;;;1.80;;
24739;SDS011;45234;48.148;17.128;2023-02-01T03:31:55;2.28;;;1.92;;
24739;SDS011;45234;48.148;17.128;2023-02-01T03:34:22;2.03;;;1.83;;
24739;SDS011;45234;48.148;17.128;2023-02-01T03:36:50;2.45;;;1.80;;
24739;SDS011;45234;48.148;17.128;2023-02-01T03:39:35;4.20;;;1.95;;
24739;SDS011;45234;48.148;17.128;2023-02-01T03:42:16;2.58;;;1.80;;
24739;SDS011;45234;48.148;17.128;2023-02-01T03:47:35;2.00;;;1.50;;
24739;SDS011;45234;48.148;17.128;2023-02-01T03:50:12;2.53;;;1.50;;
24739;SDS011;45234;48.148;17.128;2023-02-01T03:52:43;3.53;;;1.60;;
24739;SDS011;45234;48.148;17.128;2023-02-01T03:55:32;2.55;;;1.65;;
24739;SDS011;45234;48.148;17.128;2023-02-01T04:00:33;2.38;;;1.38;;
24739;SDS011;45234;48.148;17.128;2023-02-01T04:03:01;2.35;;;1.55;;
24739;SDS011;45234;48.148;17.128;2023-02-01T04:05:32;2.30;;;1.60;;
24739;SDS011;45234;48.148;17.128;2023-02-01T04:08:03;2.00;;;1.45;;
24739;SDS011;45234;48.148;17.128;2023-02-01T04:10:30;3.20;;;1.60;;
24739;SDS011;45234;48.148;17.128;2023-02-01T04:12:57;2.15;;;1.60;;
24739;SDS011;45234;48.148;17.128;2023-02-01T04:15:24;1.95;;;1.70;;
24739;SDS011;45234;48.148;17.128;2023-02-01T04:17:51;2.33;;;1.52;;
24739;SDS011;45234;48.148;17.128;2023-02-01T04:20:17;2.38;;;1.48;;
24739;SDS011;45234;48.148;17.128;2023-02-01T04:22:45;2.88;;;1.20;;
24739;SDS011;45234;48.148;17.128;2023-02-01T04:25:12;3.90;;;1.30;;
24739;SDS011;45234;48.148;17.128;2023-02-01T04:27:38;3.95;;;1.63;;
24739;SDS011;45234;48.148;17.128;2023-02-01T04:30:04;2.28;;;1.30;;
24739;SDS011;45234;48.148;17.128;2023-02-01T04:32:36;1.90;;;1.40;;
24739;SDS011;45234;48.148;17.128;2023-02-01T04:35:03;2.72;;;1.40;;
24739;SDS011;45234;48.148;17.128;2023-02-01T04:37:30;1.55;;;1.05;;
24739;SDS011;45234;48.148;17.128;2023-02-01T04:39:57;3.05;;;1.38;;
24739;SDS011;45234;48.148;17.128;2023-02-01T04:42:24;2.88;;;1.48;;
24739;SDS011;45234;48.148;17.128;2023-02-01T04:44:50;2.22;;;1.50;;
24739;SDS011;45234;48.148;17.128;2023-02-01T04:47:17;2.42;;;1.35;;
24739;SDS011;45234;48.148;17.128;2023-02-01T04:49:44;2.92;;;1.63;;
24739;SDS011;45234;48.148;17.128;2023-02-01T04:52:11;2.40;;;1.35;;
24739;SDS011;45234;48.148;17.128;2023-02-01T04:54:37;3.25;;;1.30;;
24739;SDS011;45234;48.148;17.128;2023-02-01T04:57:04;3.53;;;1.40;;
24739;SDS011;45234;48.148;17.128;2023-02-01T04:59:31;2.53;;;1.20;;
24739;SDS011;45234;48.148;17.128;2023-02-01T05:01:58;6.25;;;1.60;;
24739;SDS011;45234;48.148;17.128;2023-02-01T05:04:24;4.03;;;1.50;;
24739;SDS011;45234;48.148;17.128;2023-02-01T05:06:51;3.08;;;1.70;;
24739;SDS011;45234;48.148;17.128;2023-02-01T05:09:18;6.00;;;1.80;;
24739;SDS011;45234;48.148;17.128;2023-02-01T05:11:46;2.67;;;1.60;;
24739;SDS011;45234;48.148;17.128;2023-02-01T05:14:32;2.90;;;1.27;;
24739;SDS011;45234;48.148;17.128;2023-02-01T05:16:58;4.47;;;1.85;;
24739;SDS011;45234;48.148;17.128;2023-02-01T05:19:25;5.22;;;2.03;;
24739;SDS011;45234;48.148;17.128;2023-02-01T05:21:52;3.83;;;1.92;;
24739;SDS011;45234;48.148;17.128;2023-02-01T05:24:19;5.40;;;1.63;;
24739;SDS011;45234;48.148;17.128;2023-02-01T05:26:46;2.80;;;1.70;;
24739;SDS011;45234;48.148;17.128;2023-02-01T05:29:14;2.67;;;1.40;;
24739;SDS011;45234;48.148;17.128;2023-02-01T05:31:44;5.68;;;2.22;;
24739;SDS011;45234;48.148;17.128;2023-02-01T05:34:12;3.08;;;1.92;;
24739;SDS011;45234;48.148;17.128;2023-02-01T05:36:39;3.95;;;1.80;;
24739;SDS011;45234;48.148;17.128;2023-02-01T05:39:06;3.30;;;1.92;;
24739;SDS011;45234;48.148;17.128;2023-02-01T05:41:33;4.32;;;1.83;;
24739;SDS011;45234;48.148;17.128;2023-02-01T05:44:00;4.75;;;2.42;;
24739;SDS011;45234;48.148;17.128;2023-02-01T05:46:27;4.35;;;2.28;;
24739;SDS011;45234;48.148;17.128;2023-02-01T05:48:54;4.45;;;2.28;;
24739;SDS011;45234;48.148;17.128;2023-02-01T05:51:20;3.15;;;2.17;;
24739;SDS011;45234;48.148;17.128;2023-02-01T05:53:47;5.43;;;2.53;;
24739;SDS011;45234;48.148;17.128;2023-02-01T05:56:14;5.13;;;2.92;;
24739;SDS011;45234;48.148;17.128;2023-02-01T05:58:41;4.65;;;2.10;;
24739;SDS011;45234;48.148;17.128;2023-02-01T06:01:07;5.10;;;2.50;;
24739;SDS011;45234;48.148;17.128;2023-02-01T06:03:34;3.97;;;2.45;;
24739;SDS011;45234;48.148;17.128;2023-02-01T06:06:01;3.25;;;2.70;;
24739;SDS011;45234;48.148;17.128;2023-02-01T06:08:28;4.03;;;2.85;;
24739;SDS011;45234;48.148;17.128;2023-02-01T06:10:58;5.50;;;2.45;;
24739;SDS011;45234;48.148;17.128;2023-02-01T06:13:27;5.97;;;3.20;;
24739;SDS011;45234;48.148;17.128;2023-02-01T06:15:54;6.25;;;3.22;;
24739;SDS011;45234;48.148;17.128;2023-02-01T06:18:26;6.65;;;3.28;;
24739;SDS011;45234;48.148;17.128;2023-02-01T06:20:53;5.35;;;3.15;;
24739;SDS011;45234;48.148;17.128;2023-02-01T06:23:21;4.40;;;3.03;;
24739;SDS011;45234;48.148;17.128;2023-02-01T06:25:50;4.10;;;2.92;;
24739;SDS011;45234;48.148;17.128;2023-02-01T06:28:18;5.82;;;2.90;;
24739;SDS011;45234;48.148;17.128;2023-02-01T06:30:45;4.97;;;2.92;;
24739;SDS011;45234;48.148;17.128;2023-02-01T06:33:13;7.15;;;3.50;;
24739;SDS011;45234;48.148;17.128;2023-02-01T06:35:41;7.47;;;3.15;;
24739;SDS011;45234;48.148;17.128;2023-02-01T06:38:11;5.63;;;3.28;;
24739;SDS011;45234;48.148;17.128;2023-02-01T06:40:38;5.28;;;3.03;;
24739;SDS011;45234;48.148;17.128;2023-02-01T06:43:07;4.20;;;2.70;;
24739;SDS011;45234;48.148;17.128;2023-02-01T06:45:34;5.75;;;3.15;;
24739;SDS011;45234;48.148;17.128;2023-02-01T06:48:01;3.65;;;2.63;;
24739;SDS011;45234;48.148;17.128;2023-02-01T06:50:27;3.97;;;3.20;;
24739;SDS011;45234;48.148;17.128;2023-02-01T06:52:55;5.35;;;3.20;;
24739;SDS011;45234;48.148;17.128;2023-02-01T06:55:22;3.42;;;2.70;;
24739;SDS011;45234;48.148;17.128;2023-02-01T06:57:52;4.72;;;3.03;;
24739;SDS011;45234;48.148;17.128;2023-02-01T07:00:20;5.78;;;3.30;;
24739;SDS011;45234;48.148;17.128;2023-02-01T07:02:52;4.18;;;2.90;;
24739;SDS011;45234;48.148;17.128;2023-02-01T07:05:19;4.63;;;3.20;;
24739;SDS011;45234;48.148;17.128;2023-02-01T07:07:46;3.55;;;2.90;;
24739;SDS011;45234;48.148;17.128;2023-02-01T07:10:12;4.05;;;3.13;;
24739;SDS011;45234;48.148;17.128;2023-02-01T07:12:39;3.65;;;2.80;;
24739;SDS011;45234;48.148;17.128;2023-02-01T07:15:06;6.30;;;3.33;;
24739;SDS011;45234;48.148;17.128;2023-02-01T07:17:33;4.35;;;3.03;;
24739;SDS011;45234;48.148;17.128;2023-02-01T07:20:00;6.25;;;2.95;;
24739;SDS011;45234;48.148;17.128;2023-02-01T07:22:28;4.07;;;2.80;;
24739;SDS011;45234;48.148;17.128;2023-02-01T07:24:54;4.55;;;3.33;;
24739;SDS011;45234;48.148;17.128;2023-02-01T07:27:21;4.63;;;3.00;;
24739;SDS011;45234;48.148;17.128;2023-02-01T07:29:50;6.75;;;3.72;;
24739;SDS011;45234;48.148;17.128;2023-02-01T07:32:18;4.82;;;3.08;;
24739;SDS011;45234;48.148;17.128;2023-02-01T07:34:44;3.92;;;3.15;;
24739;SDS011;45234;48.148;17.128;2023-02-01T07:37:11;6.10;;;3.40;;
24739;SDS011;45234;48.148;17.128;2023-02-01T07:39:38;3.40;;;2.60;;
24739;SDS011;45234;48.148;17.128;2023-02-01T07:42:06;3.38;;;2.88;;
24739;SDS011;45234;48.148;17.128;2023-02-01T07:44:33;4.47;;;2.60;;
24739;SDS011;45234;48.148;17.128;2023-02-01T07:47:00;4.93;;;3.20;;
24739;SDS011;45234;48.148;17.128;2023-02-01T07:49:26;3.17;;;2.50;;
24739;SDS011;45234;48.148;17.128;2023-02-01T07:51:53;5.75;;;2.28;;
24739;SDS011;45234;48.148;17.128;2023-02-01T07:54:20;2.95;;;1.80;;
24739;SDS011;45234;48.148;17.128;2023-02-01T07:56:47;5.38;;;2.47;;
24739;SDS011;45234;48.148;17.128;2023-02-01T07:59:14;3.97;;;2.13;;
24739;SDS011;45234;48.148;17.128;2023-02-01T08:01:41;4.53;;;2.20;;
24739;SDS011;45234;48.148;17.128;2023-02-01T08:04:09;5.05;;;2.65;;
24739;SDS011;45234;48.148;17.128;2023-02-01T08:06:38;4.18;;;2.58;;
24739;SDS011;45234;48.148;17.128;2023-02-01T08:09:06;3.28;;;2.50;;
24739;SDS011;45234;48.148;17.128;2023-02-01T08:11:35;4.82;;;2.50;;
24739;SDS011;45234;48.148;17.128;2023-02-01T08:14:03;5.45;;;2.45;;
24739;SDS011;45234;48.148;17.128;2023-02-01T08:16:31;3.40;;;2.45;;
24739;SDS011;45234;48.148;17.128;2023-02-01T08:19:00;4.63;;;2.35;;
24739;SDS011;45234;48.148;17.128;2023-02-01T08:21:28;4.38;;;2.20;;
24739;SDS011;45234;48.148;17.128;2023-02-01T08:24:05;3.05;;;2.38;;
24739;SDS011;45234;48.148;17.128;2023-02-01T08:26:36;5.55;;;2.72;;
24739;SDS011;45234;48.148;17.128;2023-02-01T08:29:05;4.40;;;2.00;;
24739;SDS011;45234;48.148;17.128;2023-02-01T08:31:36;4.25;;;2.25;;
24739;SDS011;45234;48.148;17.128;2023-02-01T08:34:07;2.30;;;1.85;;
24739;SDS011;45234;48.148;17.128;2023-02-01T08:36:35;2.78;;;1.92;;
24739;SDS011;45234;48.148;17.128;2023-02-01T08:39:03;1.92;;;1.67;;
24739;SDS011;45234;48.148;17.128;2023-02-01T08:41:34;2.17;;;1.80;;
24739;SDS011;45234;48.148;17.128;2023-02-01T08:44:01;2.65;;;1.80;;
24739;SDS011;45234;48.148;17.128;2023-02-01T08:46:28;2.05;;;1.70;;
24739;SDS011;45234;48.148;17.128;2023-02-01T08:48:55;3.55;;;2.20;;
24739;SDS011;45234;48.148;17.128;2023-02-01T08:51:23;2.60;;;1.92;;
24739;SDS011;45234;48.148;17.128;2023-02-01T08:53:51;4.20;;;1.80;;
24739;SDS011;45234;48.148;17.128;2023-02-01T08:56:18;3.63;;;1.45;;
24739;SDS011;45234;48.148;17.128;2023-02-01T08:58:45;3.20;;;2.00;;
24739;SDS011;45234;48.148;17.128;2023-02-01T09:01:14;4.50;;;1.60;;
24739;SDS011;45234;48.148;17.128;2023-02-01T09:03:42;2.15;;;1.73;;
24739;SDS011;45234;48.148;17.128;2023-02-01T09:06:10;3.67;;;1.30;;
24739;SDS011;45234;48.148;17.128;2023-02-01T09:08:38;1.90;;;1.30;;
24739;SDS011;45234;48.148;17.128;2023-02-01T09:11:08;3.78;;;1.67;;
24739;SDS011;45234;48.148;17.128;2023-02-01T09:13:38;2.33;;;1.70;;
24739;SDS011;45234;48.148;17.128;2023-02-01T09:16:05;2.92;;;1.75;;
24739;SDS011;45234;48.148;17.128;2023-02-01T09:18:33;3.60;;;1.95;;
24739;SDS011;45234;48.148;17.128;2023-02-01T09:21:03;3.45;;;1.52;;
24739;SDS011;45234;48.148;17.128;2023-02-01T09:23:41;3.80;;;1.85;;
24739;SDS011;45234;48.148;17.128;2023-02-01T09:26:43;4.10;;;1.65;;
24739;SDS011;45234;48.148;17.128;2023-02-01T09:29:10;2.78;;;1.50;;
24739;SDS011;45234;48.148;17.128;2023-02-01T09:31:38;2.67;;;1.77;;
24739;SDS011;45234;48.148;17.128;2023-02-01T09:34:11;2.90;;;1.85;;
24739;SDS011;45234;48.148;17.128;2023-02-01T09:36:38;4.05;;;2.58;;
24739;SDS011;45234;48.148;17.128;2023-02-01T09:39:05;2.78;;;1.95;;
24739;SDS011;45234;48.148;17.128;2023-02-01T09:44:30;2.90;;;2.00;;
24739;SDS011;45234;48.148;17.128;2023-02-01T09:47:19;3.10;;;2.10;;
24739;SDS011;45234;48.148;17.128;2023-02-01T09:52:19;5.80;;;2.20;;
24739;SDS011;45234;48.148;17.128;2023-02-01T09:54:54;6.82;;;2.45;;
24739;SDS011;45234;48.148;17.128;2023-02-01T10:00:14;4.50;;;2.50;;
24739;SDS011;45234;48.148;17.128;2023-02-01T10:02:48;3.78;;;2.05;;
24739;SDS011;45234;48.148;17.128;2023-02-01T10:05:22;2.42;;;1.30;;
24739;SDS011;45234;48.148;17.128;2023-02-01T10:08:13;3.33;;;1.38;;
24739;SDS011;45234;48.148;17.128;2023-02-01T10:10:47;1.35;;;1.10;;
24739;SDS011;45234;48.148;17.128;2023-02-01T10:21:54;2.72;;;1.17;;
24739;SDS011;45234;48.148;17.128;2023-02-01T10:27:22;4.57;;;1.63;;
24739;SDS011;45234;48.148;17.128;2023-02-01T10:30:04;2.65;;;1.80;;
24739;SDS011;45234;48.148;17.128;2023-02-01T10:32:59;2.75;;;2.00;;
24739;SDS011;45234;48.148;17.128;2023-02-01T10:35:38;4.05;;;1.63;;
24739;SDS011;45234;48.148;17.128;2023-02-01T10:38:11;2.10;;;1.40;;
24739;SDS011;45234;48.148;17.128;2023-02-01T10:40:50;3.65;;;1.80;;
24739;SDS011;45234;48.148;17.128;2023-02-01T10:43:20;3.17;;;2.17;;
24739;SDS011;45234;48.148;17.128;2023-02-01T10:45:47;4.93;;;2.28;;
24739;SDS011;45234;48.148;17.128;2023-02-01T10:48:14;3.38;;;1.60;;
24739;SDS011;45234;48.148;17.128;2023-02-01T10:53:24;3.40;;;1.75;;
24739;SDS011;45234;48.148;17.128;2023-02-01T10:56:05;2.65;;;1.77;;
24739;SDS011;45234;48.148;17.128;2023-02-01T10:58:34;3.08;;;2.00;;
24739;SDS011;45234;48.148;17.128;2023-02-01T11:01:09;2.55;;;1.60;;
24739;SDS011;45234;48.148;17.128;2023-02-01T11:03:44;4.53;;;1.98;;
24739;SDS011;45234;48.148;17.128;2023-02-01T11:08:57;2.13;;;1.45;;
24739;SDS011;45234;48.148;17.128;2023-02-01T11:11:26;3.47;;;2.17;;
24739;SDS011;45234;48.148;17.128;2023-02-01T11:13:57;2.58;;;1.75;;
24739;SDS011;45234;48.148;17.128;2023-02-01T11:16:37;1.50;;;1.35;;
24739;SDS011;45234;48.148;17.128;2023-02-01T11:19:05;2.72;;;1.45;;
24739;SDS011;45234;48.148;17.128;2023-02-01T11:21:32;2.22;;;1.35;;
24739;SDS011;45234;48.148;17.128;2023-02-01T11:24:00;1.45;;;1.27;;
24739;SDS011;45234;48.148;17.128;2023-02-01T11:26:30;5.97;;;1.98;;
24739;SDS011;45234;48.148;17.128;2023-02-01T11:29:08;2.20;;;1.40;;
24739;SDS011;45234;48.148;17.128;2023-02-01T11:31:38;3.17;;;1.30;;
24739;SDS011;45234;48.148;17.128;2023-02-01T11:34:09;1.65;;;1.08;;
24739;SDS011;45234;48.148;17.128;2023-02-01T11:36:40;2.00;;;1.00;;
24739;SDS011;45234;48.148;17.128;2023-02-01T11:44:37;2.90;;;1.40;;
24739;SDS011;45234;48.148;17.128;2023-02-01T11:49:50;1.73;;;1.08;;
24739;SDS011;45234;48.148;17.128;2023-02-01T12:03:11;2.55;;;1.05;;
24739;SDS011;45234;48.148;17.128;2023-02-01T12:06:05;1.65;;;0.90;;
24739;SDS011;45234;48.148;17.128;2023-02-01T12:08:44;1.70;;;1.10;;
24739;SDS011;45234;48.148;17.128;2023-02-01T12:24:06;3.63;;;1.02;;
24739;SDS011;45234;48.148;17.128;2023-02-01T12:44:43;2.25;;;1.20;;
24739;SDS011;45234;48.148;17.128;2023-02-01T12:52:37;2.95;;;1.08;;
24739;SDS011;45234;48.148;17.128;2023-02-01T12:55:17;1.52;;;0.68;;
24739;SDS011;45234;48.148;17.128;2023-02-01T12:57:50;1.42;;;1.10;;
24739;SDS011;45234;48.148;17.128;2023-02-01T13:00:54;2.55;;;0.95;;
24739;SDS011;45234;48.148;17.128;2023-02-01T13:11:29;4.10;;;1.00;;
24739;SDS011;45234;48.148;17.128;2023-02-01T13:16:42;3.38;;;1.05;;
24739;SDS011;45234;48.148;17.128;2023-02-01T13:19:28;2.13;;;0.95;;
24739;SDS011;45234;48.148;17.128;2023-02-01T13:22:20;1.20;;;0.90;;
24739;SDS011;45234;48.148;17.128;2023-02-01T13:24:56;2.40;;;1.00;;
24739;SDS011;45234;48.148;17.128;2023-02-01T13:27:26;1.45;;;0.80;;
24739;SDS011;45234;48.148;17.128;2023-02-01T13:42:15;3.63;;;1.40;;
24739;SDS011;45234;48.148;17.128;2023-02-01T13:44:50;3.00;;;1.40;;
24739;SDS011;45234;48.148;17.128;2023-02-01T13:47:26;3.72;;;1.50;;
24739;SDS011;45234;48.148;17.128;2023-02-01T13:49:57;2.70;;;1.45;;
24739;SDS011;45234;48.148;17.128;2023-02-01T13:52:42;2.53;;;1.50;;
24739;SDS011;45234;48.148;17.128;2023-02-01T13:55:15;3.22;;;1.63;;
24739;SDS011;45234;48.148;17.128;2023-02-01T13:58:02;2.08;;;1.40;;
24739;SDS011;45234;48.148;17.128;2023-02-01T14:00:31;1.63;;;1.48;;
24739;SDS011;45234;48.148;17.128;2023-02-01T14:13:29;3.90;;;1.63;;
24739;SDS011;45234;48.148;17.128;2023-02-01T14:19:18;2.08;;;1.30;;
24739;SDS011;45234;48.148;17.128;2023-02-01T14:21:33;1.77;;;1.30;;
24739;SDS011;45234;48.148;17.128;2023-02-01T14:26:51;2.00;;;1.33;;
24739;SDS011;45234;48.148;17.128;2023-02-01T14:39:59;4.88;;;1.00;;
24739;SDS011;45234;48.148;17.128;2023-02-01T15:00:59;2.42;;;1.00;;
24739;SDS011;45234;48.148;17.128;2023-02-01T15:08:57;2.17;;;1.23;;
24739;SDS011;45234;48.148;17.128;2023-02-01T15:11:30;3.70;;;1.30;;
24739;SDS011;45234;48.148;17.128;2023-02-01T15:13:56;4.80;;;1.08;;
24739;SDS011;45234;48.148;17.128;2023-02-01T15:16:26;4.78;;;1.23;;
24739;SDS011;45234;48.148;17.128;2023-02-01T15:19:14;4.03;;;0.70;;
24739;SDS011;45234;48.148;17.128;2023-02-01T15:21:44;2.80;;;0.82;;
24739;SDS011;45234;48.148;17.128;2023-02-01T15:24:17;3.00;;;0.77;;
24739;SDS011;45234;48.148;17.128;2023-02-01T15:26:47;2.78;;;0.93;;
24739;SDS011;45234;48.148;17.128;2023-02-01T15:29:14;2.72;;;1.15;;
24739;SDS011;45234;48.148;17.128;2023-02-01T15:31:43;3.63;;;1.13;;
24739;SDS011;45234;48.148;17.128;2023-02-01T15:34:12;3.58;;;1.17;;
24739;SDS011;45234;48.148;17.128;2023-02-01T15:36:40;1.92;;;0.82;;
24739;SDS011;45234;48.148;17.128;2023-02-01T15:39:25;4.30;;;0.90;;
24739;SDS011;45234;48.148;17.128;2023-02-01T15:41:53;1.30;;;0.52;;
24739;SDS011;45234;48.148;17.128;2023-02-01T15:44:37;1.73;;;0.80;;
24739;SDS011;45234;48.148;17.128;2023-02-01T15:47:16;3.08;;;0.93;;
24739;SDS011;45234;48.148;17.128;2023-02-01T15:49:54;2.00;;;0.90;;
24739;SDS011;45234;48.148;17.128;2023-02-01T15:52:37;3.38;;;1.08;;
24739;SDS011;45234;48.148;17.128;2023-02-01T15:55:07;1.73;;;0.93;;
24739;SDS011;45234;48.148;17.128;2023-02-01T15:57:55;1.35;;;0.90;;
24739;SDS011;45234;48.148;17.128;2023-02-01T16:00:27;5.40;;;0.77;;
24739;SDS011;45234;48.148;17.128;2023-02-01T16:02:59;1.25;;;0.63;;
24739;SDS011;45234;48.148;17.128;2023-02-01T16:08:22;1.40;;;0.75;;
24739;SDS011;45234;48.148;17.128;2023-02-01T16:10:51;1.75;;;0.70;;
24739;SDS011;45234;48.148;17.128;2023-02-01T16:13:20;2.70;;;0.95;;
24739;SDS011;45234;48.148;17.128;2023-02-01T16:15:47;5.15;;;0.80;;
24739;SDS011;45234;48.148;17.128;2023-02-01T16:18:15;1.55;;;0.98;;
24739;SDS011;45234;48.148;17.128;2023-02-01T16:20:43;1.83;;;0.77;;
24739;SDS011;45234;48.148;17.128;2023-02-01T16:23:11;0.80;;;0.50;;
24739;SDS011;45234;48.148;17.128;2023-02-01T16:25:38;5.68;;;0.60;;
24739;SDS011;45234;48.148;17.128;2023-02-01T16:28:06;1.52;;;0.80;;
24739;SDS011;45234;48.148;17.128;2023-02-01T16:30:34;1.95;;;0.90;;
24739;SDS011;45234;48.148;17.128;2023-02-01T16:33:01;1.23;;;0.60;;
24739;SDS011;45234;48.148;17.128;2023-02-01T16:35:31;1.35;;;0.60;;
24739;SDS011;45234;48.148;17.128;2023-02-01T16:38:03;3.23;;;0.60;;
24739;SDS011;45234;48.148;17.128;2023-02-01T16:40:41;2.13;;;0.80;;
24739;SDS011;45234;48.148;17.128;2023-02-01T16:43:22;1.50;;;0.98;;
24739;SDS011;45234;48.148;17.128;2023-02-01T16:45:51;1.92;;;1.00;;
24739;SDS011;45234;48.148;17.128;2023-02-01T16:48:23;1.83;;;0.90;;
24739;SDS011;45234;48.148;17.128;2023-02-01T16:50:53;2.22;;;0.98;;
24739;SDS011;45234;48.148;17.128;2023-02-01T16:53:26;2.53;;;0.98;;
24739;SDS011;45234;48.148;17.128;2023-02-01T16:55:57;1.85;;;0.90;;
24739;SDS011;45234;48.148;17.128;2023-02-01T16:58:24;2.88;;;1.02;;
24739;SDS011;45234;48.148;17.128;2023-02-01T17:00:52;6.47;;;1.65;;
24739;SDS011;45234;48.148;17.128;2023-02-01T17:03:21;1.40;;;1.00;;
24739;SDS011;45234;48.148;17.128;2023-02-01T17:05:49;8.73;;;1.65;;
24739;SDS011;45234;48.148;17.128;2023-02-01T17:08:27;4.75;;;1.25;;
24739;SDS011;45234;48.148;17.128;2023-02-01T17:11:00;2.22;;;1.00;;
24739;SDS011;45234;48.148;17.128;2023-02-01T17:13:27;3.30;;;1.10;;
24739;SDS011;45234;48.148;17.128;2023-02-01T17:15:56;2.40;;;0.95;;
24739;SDS011;45234;48.148;17.128;2023-02-01T17:18:26;2.45;;;1.25;;
24739;SDS011;45234;48.148;17.128;2023-02-01T17:20:58;4.50;;;1.33;;
24739;SDS011;45234;48.148;17.128;2023-02-01T17:23:28;2.45;;;1.38;;
24739;SDS011;45234;48.148;17.128;2023-02-01T17:25:56;2.97;;;1.42;;
24739;SDS011;45234;48.148;17.128;2023-02-01T17:28:23;4.78;;;1.42;;
24739;SDS011;45234;48.148;17.128;2023-02-01T17:30:50;3.50;;;2.03;;
24739;SDS011;45234;48.148;17.128;2023-02-01T17:33:26;7.03;;;1.58;;
24739;SDS011;45234;48.148;17.128;2023-02-01T17:36:01;3.28;;;1.30;;
24739;SDS011;45234;48.148;17.128;2023-02-01T17:38:30;2.75;;;1.17;;
24739;SDS011;45234;48.148;17.128;2023-02-01T17:40:57;3.10;;;1.23;;
24739;SDS011;45234;48.148;17.128;2023-02-01T17:43:24;3.45;;;1.80;;
24739;SDS011;45234;48.148;17.128;2023-02-01T17:45:59;3.58;;;1.23;;
24739;SDS011;45234;48.148;17.128;2023-02-01T17:48:45;3.25;;;1.30;;
24739;SDS011;45234;48.148;17.128;2023-02-01T17:51:16;4.88;;;1.35;;
24739;SDS011;45234;48.148;17.128;2023-02-01T17:53:53;2.97;;;1.35;;
24739;SDS011;45234;48.148;17.128;2023-02-01T17:56:22;3.20;;;1.20;;
24739;SDS011;45234;48.148;17.128;2023-02-01T17:58:50;2.38;;;1.20;;
24739;SDS011;45234;48.148;17.128;2023-02-01T18:01:18;3.10;;;1.60;;
24739;SDS011;45234;48.148;17.128;2023-02-01T18:03:47;5.50;;;1.55;;
24739;SDS011;45234;48.148;17.128;2023-02-01T18:06:17;4.95;;;1.55;;
24739;SDS011;45234;48.148;17.128;2023-02-01T18:08:47;6.50;;;1.55;;
24739;SDS011;45234;48.148;17.128;2023-02-01T18:11:18;2.92;;;1.70;;
24739;SDS011;45234;48.148;17.128;2023-02-01T18:13:47;5.03;;;1.67;;
24739;SDS011;45234;48.148;17.128;2023-02-01T18:16:23;3.38;;;1.85;;